createdAt,value
2023-01-31T00:04:07.413Z,96170.59
2023-01-31T00:09:12.589Z,96186.84
2023-01-31T00:14:20.364Z,96202.16
2023-01-31T00:19:30.472Z,96192.25
2023-01-31T00:24:37.804Z,96180.22
2023-01-31T00:29:43.053Z,96182.13
2023-01-31T00:34:47.147Z,96191.63
2023-01-31T00:39:48.761Z,96190.38
2023-01-31T00:44:55.843Z,96189.69
2023-01-31T00:50:01.624Z,96202.41
2023-01-31T00:55:10.699Z,96192.41
2023-01-31T01:00:13.815Z,96205.91
2023-01-31T01:05:18.541Z,96196.34
2023-01-31T01:10:29.634Z,96231.41
2023-01-31T01:15:37.574Z,96209.78
2023-01-31T01:20:46.717Z,96251.03
2023-01-31T01:25:49.228Z,96227.63
2023-01-31T01:31:02.751Z,96236.72
2023-01-31T01:36:23.167Z,96248.63
2023-01-31T01:41:35.446Z,96238.25
2023-01-31T01:46:48.050Z,96242.31
2023-01-31T01:51:52.567Z,96250.09
2023-01-31T01:57:09.335Z,96248.72
2023-01-31T02:02:18.866Z,96238.56
2023-01-31T02:07:21.615Z,96231.13
2023-01-31T02:12:25.200Z,96246.75
2023-01-31T02:17:29.357Z,96250.38
2023-01-31T02:23:32.618Z,96249.44
2023-01-31T02:28:56.946Z,96264.47
2023-01-31T02:34:12.956Z,96262.88
2023-01-31T02:40:01.915Z,96263.31
2023-01-31T02:45:33.418Z,96273.34
2023-01-31T02:50:52.077Z,96275.25
2023-01-31T02:56:31.829Z,96283.16
2023-01-31T03:01:46.486Z,96292.97
2023-01-31T03:07:08.404Z,96348.22
2023-01-31T03:12:30.651Z,96306.59
2023-01-31T03:17:52.077Z,96324.72
2023-01-31T03:23:00.898Z,96330.38
2023-01-31T03:28:07.580Z,96334.00
2023-01-31T03:33:29.831Z,96343.06
2023-01-31T03:38:54.377Z,96344.00
2023-01-31T03:44:20.827Z,96360.28
2023-01-31T03:49:28.413Z,96349.69
2023-01-31T03:54:38.703Z,96354.16
2023-01-31T03:59:43.118Z,96352.38
2023-01-31T04:04:58.119Z,96356.19
2023-01-31T04:10:02.041Z,96370.34
2023-01-31T04:15:08.446Z,96388.78
2023-01-31T04:20:13.110Z,96396.41
2023-01-31T04:25:14.671Z,96408.84
2023-01-31T04:30:20.718Z,96411.03
2023-01-31T04:35:30.911Z,96409.00
2023-01-31T04:40:50.029Z,96397.22
2023-01-31T04:45:56.095Z,96402.94
2023-01-31T04:51:00.090Z,96430.91
2023-01-31T04:56:05.826Z,96415.50
2023-01-31T05:01:08.584Z,96409.59
2023-01-31T05:06:10.215Z,96409.59
2023-01-31T05:11:11.834Z,96397.66
2023-01-31T05:16:18.755Z,96411.63
2023-01-31T05:21:20.388Z,96423.22
2023-01-31T05:26:24.273Z,96407.38
2023-01-31T05:31:28.794Z,96406.19
2023-01-31T05:36:33.832Z,96398.88
2023-01-31T05:41:39.434Z,96390.19
2023-01-31T05:46:45.984Z,96388.41
2023-01-31T05:52:05.081Z,96397.28
2023-01-31T05:57:08.945Z,96398.41
2023-01-31T06:02:15.270Z,96409.13
2023-01-31T06:07:23.104Z,96413.56
2023-01-31T06:12:29.702Z,96410.09
2023-01-31T06:17:36.485Z,96419.44
2023-01-31T06:22:57.823Z,96433.41
2023-01-31T06:28:04.567Z,96437.38
2023-01-31T06:33:07.289Z,96448.28
2023-01-31T06:38:09.293Z,96437.50
2023-01-31T06:43:15.367Z,96437.50
2023-01-31T06:48:17.623Z,96461.50
2023-01-31T06:53:23.705Z,96444.34
2023-01-31T06:58:28.149Z,96462.47
2023-01-31T07:03:31.379Z,96464.03
2023-01-31T07:08:36.108Z,96471.03
2023-01-31T07:13:49.021Z,96468.16
2023-01-31T07:18:56.427Z,96464.47
2023-01-31T07:24:00.506Z,96476.38
2023-01-31T07:29:05.602Z,96480.34
2023-01-31T07:34:17.978Z,96473.94
2023-01-31T07:39:21.710Z,96490.50
2023-01-31T07:44:24.512Z,96461.88
2023-01-31T07:49:32.140Z,96462.66
2023-01-31T07:54:40.319Z,96451.44
2023-01-31T07:59:44.599Z,96449.81
2023-01-31T08:04:51.162Z,96446.34
2023-01-31T08:09:52.960Z,96457.25
2023-01-31T08:14:56.184Z,96469.78
2023-01-31T08:20:00.321Z,96480.75
2023-01-31T08:25:05.608Z,96481.84
2023-01-31T08:30:14.975Z,96494.72
2023-01-31T08:35:29.348Z,96506.34
2023-01-31T08:40:40.219Z,96506.34
2023-01-31T08:45:47.856Z,96517.59
2023-01-31T08:50:51.722Z,96516.13
2023-01-31T08:56:07.843Z,96534.47
2023-01-31T09:01:14.383Z,96527.69
2023-01-31T09:06:23.373Z,96524.50
2023-01-31T09:11:27.842Z,96520.66
2023-01-31T09:16:31.329Z,96520.66
2023-01-31T09:21:35.604Z,96513.03
2023-01-31T09:26:39.626Z,96508.94
2023-01-31T09:31:54.588Z,96493.66
2023-01-31T09:36:57.716Z,96494.00
2023-01-31T09:42:18.427Z,96491.97
2023-01-31T09:47:30.914Z,96495.56
2023-01-31T09:52:35.378Z,96508.56
2023-01-31T09:58:07.452Z,96496.16
2023-01-31T10:03:18.730Z,96495.38
2023-01-31T10:08:39.904Z,96511.13
2023-01-31T10:13:55.615Z,96491.09
2023-01-31T10:19:06.348Z,96496.03
2023-01-31T10:24:22.123Z,96497.88
2023-01-31T10:29:32.718Z,96485.44
2023-01-31T10:34:54.658Z,96466.50
2023-01-31T10:40:04.040Z,96462.69
2023-01-31T10:45:23.208Z,96451.53
2023-01-31T10:50:40.216Z,96447.84
2023-01-31T10:55:54.054Z,96431.84
2023-01-31T11:00:58.379Z,96429.44
2023-01-31T11:06:03.920Z,96428.66
2023-01-31T11:11:12.905Z,96416.53
2023-01-31T11:16:19.416Z,96415.41
2023-01-31T11:21:37.799Z,96403.03
2023-01-31T11:26:42.553Z,96406.25
2023-01-31T11:31:50.487Z,96383.28
2023-01-31T11:36:53.632Z,96394.66
2023-01-31T11:41:58.111Z,96365.63
2023-01-31T11:47:10.969Z,96359.69
2023-01-31T11:52:14.817Z,96348.19
2023-01-31T11:57:26.829Z,96356.09
2023-01-31T12:02:37.858Z,96356.34
2023-01-31T12:07:44.277Z,96349.84
2023-01-31T12:12:45.830Z,96361.06
2023-01-31T12:17:50.678Z,96343.03
2023-01-31T12:23:03.419Z,96334.72
2023-01-31T12:28:33.110Z,96330.31
2023-01-31T12:34:03.993Z,96287.84
2023-01-31T12:39:28.376Z,96318.25
2023-01-31T12:44:46.633Z,96280.75
2023-01-31T12:55:41.831Z,96260.13
2023-01-31T13:01:07.443Z,96279.84
2023-01-31T13:06:15.535Z,96251.81
2023-01-31T13:11:55.955Z,96251.81
2023-01-31T13:17:17.160Z,96261.47
2023-01-31T13:22:27.769Z,96264.19
2023-01-31T13:27:39.294Z,96244.94
2023-01-31T13:32:51.292Z,96246.94
2023-01-31T13:38:02.173Z,96274.56
2023-01-31T13:43:19.139Z,96277.41
2023-01-31T13:48:52.788Z,96253.47
2023-01-31T13:54:43.952Z,96275.25
2023-01-31T13:59:54.743Z,96249.66
2023-01-31T14:05:28.185Z,96250.22
2023-01-31T14:10:40.365Z,96252.38
2023-01-31T14:15:54.511Z,96222.50
2023-01-31T14:21:30.901Z,96242.22
2023-01-31T14:26:43.796Z,96227.69
2023-01-31T14:31:50.194Z,96236.03
2023-01-31T14:37:13.749Z,96224.84
2023-01-31T14:42:49.459Z,96219.25
2023-01-31T14:47:53.300Z,96213.47
2023-01-31T14:53:25.017Z,96180.94
2023-01-31T14:58:32.118Z,96168.66
2023-01-31T15:03:50.061Z,96185.97
2023-01-31T15:09:30.032Z,96162.25
2023-01-31T15:14:49.649Z,96209.31
2023-01-31T15:20:15.087Z,96178.69
2023-01-31T15:25:48.029Z,96185.88
2023-01-31T15:30:50.770Z,96189.50
2023-01-31T15:35:54.686Z,96205.38
2023-01-31T15:41:20.162Z,96200.09
2023-01-31T15:46:42.390Z,96191.28
2023-01-31T15:51:46.014Z,96198.94
2023-01-31T15:56:47.588Z,96195.56
2023-01-31T16:01:56.021Z,96183.97
2023-01-31T16:07:03.595Z,96192.75
2023-01-31T16:12:08.298Z,96198.16
2023-01-31T16:17:12.716Z,96203.13
2023-01-31T16:22:31.777Z,96205.03
2023-01-31T16:27:38.160Z,96207.63
2023-01-31T16:32:47.919Z,96187.44
2023-01-31T16:38:03.449Z,96201.53
2023-01-31T16:43:34.327Z,96195.78
2023-01-31T16:48:43.203Z,96188.47
2023-01-31T16:53:59.695Z,96180.34
2023-01-31T16:59:04.781Z,96181.25
2023-01-31T17:04:11.841Z,96196.69
2023-01-31T17:09:24.456Z,96196.13
2023-01-31T17:14:29.119Z,96227.63
2023-01-31T17:19:31.673Z,96198.47
2023-01-31T17:24:34.498Z,96188.34
2023-01-31T17:29:36.003Z,96189.78
2023-01-31T17:34:38.828Z,96187.56
2023-01-31T17:39:40.801Z,96201.84
2023-01-31T17:44:47.065Z,96198.34
2023-01-31T17:49:54.991Z,96185.84
2023-01-31T17:55:02.032Z,96183.72
2023-01-31T18:00:12.585Z,96193.72
2023-01-31T18:05:18.669Z,96194.41
2023-01-31T18:10:31.822Z,96185.41
2023-01-31T18:15:39.921Z,96194.03
2023-01-31T18:20:47.707Z,96196.38
2023-01-31T18:25:51.570Z,96202.63
2023-01-31T18:31:01.812Z,96197.13
2023-01-31T18:36:03.799Z,96175.84
2023-01-31T18:41:10.805Z,96188.31
2023-01-31T18:46:12.903Z,96202.94
2023-01-31T18:51:15.697Z,96196.88
2023-01-31T18:56:20.304Z,96190.38
2023-01-31T19:01:26.988Z,96212.09
2023-01-31T19:06:35.257Z,96209.19
2023-01-31T19:11:45.449Z,96211.19
2023-01-31T19:16:49.217Z,96198.63
2023-01-31T19:22:02.082Z,96200.66
2023-01-31T19:27:07.596Z,96185.22
2023-01-31T19:32:12.165Z,96191.41
2023-01-31T19:37:16.155Z,96186.47
2023-01-31T19:42:20.615Z,96186.94
2023-01-31T19:47:24.827Z,96188.50
2023-01-31T19:52:33.837Z,96179.28
2023-01-31T19:57:35.357Z,96178.84
2023-01-31T20:02:43.445Z,96187.06
2023-01-31T20:07:45.409Z,96179.75
2023-01-31T20:12:47.064Z,96197.97
2023-01-31T20:17:50.989Z,96179.31
2023-01-31T20:22:58.822Z,96165.44
2023-01-31T20:28:03.680Z,96170.22
2023-01-31T20:33:08.925Z,96198.13
2023-01-31T20:38:23.471Z,96188.22
2023-01-31T20:43:27.516Z,96170.56
2023-01-31T20:48:34.437Z,96191.03
2023-01-31T20:53:38.298Z,96184.31
2023-01-31T20:58:43.096Z,96168.28
2023-01-31T21:03:51.915Z,96145.09
2023-01-31T21:08:56.336Z,96157.84
2023-01-31T21:14:02.387Z,96151.19
2023-01-31T21:19:11.586Z,96130.56
2023-01-31T21:24:22.787Z,96136.44
2023-01-31T21:29:26.181Z,96142.94
2023-01-31T21:34:27.935Z,96145.66
2023-01-31T21:39:34.813Z,96154.22
2023-01-31T21:44:41.461Z,96165.72
2023-01-31T21:49:43.408Z,96170.78
2023-01-31T21:54:52.910Z,96163.56
2023-01-31T21:59:54.493Z,96175.16
2023-01-31T22:05:01.442Z,96153.75
2023-01-31T22:10:19.677Z,96171.44
2023-01-31T22:15:24.775Z,96180.34
2023-01-31T22:20:26.353Z,96171.56
2023-01-31T22:25:33.008Z,96176.19
2023-01-31T22:30:43.034Z,96175.06
2023-01-31T22:35:49.257Z,96179.69
2023-01-31T22:40:53.722Z,96164.03
2023-01-31T22:46:04.776Z,96164.03
2023-01-31T22:51:10.866Z,96166.16
2023-01-31T22:56:16.256Z,96176.84
2023-01-31T23:01:28.361Z,96172.34
2023-01-31T23:06:36.655Z,96168.09
2023-01-31T23:11:38.415Z,96153.09
2023-01-31T23:17:03.370Z,96142.41
2023-01-31T23:22:04.971Z,96133.28
2023-01-31T23:27:09.557Z,96134.19
2023-01-31T23:32:17.295Z,96146.91
2023-01-31T23:37:33.943Z,96133.97
2023-01-31T23:42:45.988Z,96136.44
2023-01-31T23:47:47.837Z,96136.31
2023-01-31T23:52:52.399Z,96110.28
2023-01-31T23:57:55.145Z,96105.47
